Time;durP1;ratioP1;P1;durP2;ratioP2;P2;SDS_P1;SDS_P2;PMS_P1;PMS_P2;Temp;Humidity;BMP_temperature;BMP_pressure;BME280_temperature;BME280_humidity;BME280_pressure;Samples;Min_cycle;Max_cycle;Signal;HPM_P1;HPM_P2
2022/05/26 00:00:16;;;;;;;4.20;1.50;;;11.60;99.90;;;;;;4990901;28;20124;-77
2022/05/26 00:02:41;;;;;;;2.33;1.63;;;11.60;99.90;;;;;;4973980;28;20530;-77
2022/05/26 00:05:07;;;;;;;3.20;1.45;;;11.60;99.90;;;;;;4991935;28;20034;-77
2022/05/26 00:07:33;;;;;;;6.10;1.70;;;11.60;99.90;;;;;;4991186;28;20088;-77
2022/05/26 00:09:58;;;;;;;2.17;1.77;;;11.70;99.90;;;;;;4991348;28;20026;-78
2022/05/26 00:12:24;;;;;;;3.47;1.70;;;11.70;99.90;;;;;;4991519;28;20056;-77
2022/05/26 00:14:49;;;;;;;3.90;1.70;;;11.70;99.90;;;;;;4991241;28;20034;-77
2022/05/26 00:17:15;;;;;;;2.58;1.70;;;11.70;99.90;;;;;;4991033;28;20034;-77
2022/05/26 00:19:42;;;;;;;3.50;1.80;;;11.70;99.90;;;;;;4991074;28;20056;-78
2022/05/26 00:22:07;;;;;;;4.50;1.73;;;11.70;99.90;;;;;;4973674;28;20034;-78
2022/05/26 00:24:33;;;;;;;3.15;1.83;;;11.70;99.90;;;;;;4991550;28;20520;-78
2022/05/26 00:26:58;;;;;;;6.00;1.58;;;11.70;99.90;;;;;;4991117;28;20136;-78
2022/05/26 00:29:24;;;;;;;2.85;1.60;;;11.70;99.90;;;;;;4991205;28;20037;-77
2022/05/26 00:31:50;;;;;;;7.30;2.95;;;11.70;99.90;;;;;;4991252;28;20364;-77
2022/05/26 00:34:15;;;;;;;3.95;1.67;;;11.70;99.90;;;;;;4990679;28;20033;-78
2022/05/26 00:36:43;;;;;;;7.72;1.95;;;11.60;99.90;;;;;;4990809;28;20027;-78
2022/05/26 00:39:12;;;;;;;3.95;1.92;;;11.60;99.90;;;;;;4991039;28;20037;-78
2022/05/26 00:41:40;;;;;;;4.72;1.95;;;11.60;99.90;;;;;;4990625;28;20023;-77
2022/05/26 00:44:05;;;;;;;5.65;2.20;;;11.60;99.90;;;;;;4991312;28;20097;-77
2022/05/26 00:46:46;;;;;;;2.17;1.75;;;11.60;99.90;;;;;;4990860;28;20416;-78
2022/05/26 00:49:35;;;;;;;3.80;1.90;;;11.70;99.90;;;;;;4990489;28;20030;-78
2022/05/26 00:52:02;;;;;;;5.38;1.90;;;11.60;99.90;;;;;;4990195;28;20140;-78
2022/05/26 00:54:28;;;;;;;3.92;1.80;;;11.60;99.90;;;;;;4984339;28;20027;-77
2022/05/26 00:57:05;;;;;;;5.30;2.10;;;11.60;99.90;;;;;;4978523;28;20026;-77
2022/05/26 00:59:56;;;;;;;3.38;1.83;;;11.60;99.90;;;;;;4971102;28;20018;-78
2022/05/26 01:02:26;;;;;;;2.50;1.80;;;11.60;99.90;;;;;;4972150;28;20412;-77
2022/05/26 01:04:56;;;;;;;3.88;2.15;;;11.50;99.90;;;;;;4971559;28;20014;-78
2022/05/26 01:07:29;;;;;;;2.50;2.00;;;11.50;99.90;;;;;;4971077;28;20022;-77
2022/05/26 01:09:56;;;;;;;4.68;1.98;;;11.50;99.90;;;;;;4970852;28;20086;-78
2022/05/26 01:12:22;;;;;;;4.13;1.90;;;11.40;99.90;;;;;;4971109;28;20029;-77
2022/05/26 01:15:15;;;;;;;6.20;2.22;;;11.40;99.90;;;;;;4969155;28;20468;-78
2022/05/26 01:18:11;;;;;;;4.15;2.47;;;11.40;99.90;;;;;;4967832;28;20074;-77
2022/05/26 01:20:44;;;;;;;;;;;11.40;99.90;;;;;;4971308;28;20035;-77
2022/05/26 01:23:50;;;;;;;2.58;2.20;;;11.40;99.90;;;;;;4970091;28;19938;-77
2022/05/26 01:26:25;;;;;;;4.53;2.67;;;11.40;99.90;;;;;;4970246;28;20027;-77
2022/05/26 01:29:15;;;;;;;13.95;2.30;;;11.40;99.90;;;;;;4970316;28;20035;-78
2022/05/26 01:31:52;;;;;;;3.15;2.13;;;11.30;99.90;;;;;;4971494;28;20023;-77
2022/05/26 01:34:30;;;;;;;5.53;2.00;;;11.30;99.90;;;;;;4953296;28;20035;-77
2022/05/26 01:37:26;;;;;;;3.92;2.17;;;11.30;99.90;;;;;;4971467;28;20476;-77
2022/05/26 01:40:29;;;;;;;4.97;2.40;;;11.20;99.90;;;;;;4971488;28;20030;-77
2022/05/26 01:43:14;;;;;;;5.10;2.20;;;11.20;99.90;;;;;;4970818;28;20034;-77
2022/05/26 01:46:16;;;;;;;5.35;2.42;;;11.20;99.90;;;;;;4953030;28;20373;-78
2022/05/26 01:48:58;;;;;;;3.40;2.15;;;11.10;99.90;;;;;;4970010;28;20546;-77
2022/05/26 01:51:32;;;;;;;4.28;2.20;;;11.10;99.90;;;;;;4970364;28;20030;-78
2022/05/26 01:54:19;;;;;;;7.78;2.50;;;11.00;99.90;;;;;;4972693;28;20033;-77
2022/05/26 01:57:01;;;;;;;4.30;2.08;;;11.00;99.90;;;;;;4970418;28;20062;-77
2022/05/26 01:59:34;;;;;;;3.67;2.10;;;11.00;99.90;;;;;;4970000;28;20361;-77
2022/05/26 02:02:06;;;;;;;3.80;2.33;;;11.00;99.90;;;;;;4970267;28;20053;-77
2022/05/26 02:04:40;;;;;;;3.63;2.13;;;11.00;99.90;;;;;;4970239;28;20069;-77
2022/05/26 02:07:22;;;;;;;10.15;3.08;;;11.00;99.90;;;;;;4970269;28;20035;-77
2022/05/26 02:09:50;;;;;;;3.72;2.33;;;11.00;99.90;;;;;;4968448;28;20066;-77
2022/05/26 02:12:26;;;;;;;5.47;2.47;;;11.00;99.90;;;;;;4970335;28;20424;-77
2022/05/26 02:14:57;;;;;;;6.85;2.53;;;10.90;99.90;;;;;;4970518;28;20073;-77
2022/05/26 02:17:36;;;;;;;2.45;2.08;;;10.90;99.90;;;;;;4970662;28;20031;-77
2022/05/26 02:20:10;;;;;;;6.03;3.38;;;10.90;99.90;;;;;;4970647;28;20334;-77
2022/05/26 02:22:49;;;;;;;2.85;2.35;;;10.90;99.90;;;;;;4970051;28;20081;-77
2022/05/26 02:25:18;;;;;;;4.72;2.47;;;10.90;99.90;;;;;;4970554;28;20035;-77
2022/05/26 02:27:46;;;;;;;2.70;2.22;;;10.90;99.90;;;;;;4970396;28;20089;-77
2022/05/26 02:30:12;;;;;;;4.60;2.65;;;10.80;99.90;;;;;;4970403;28;20022;-77
2022/05/26 02:32:41;;;;;;;7.20;2.60;;;10.80;99.90;;;;;;4969896;28;20074;-77
2022/05/26 02:35:16;;;;;;;7.90;2.80;;;10.80;99.90;;;;;;4969859;28;20663;-77
2022/05/26 02:37:45;;;;;;;4.70;2.60;;;10.80;99.90;;;;;;4969538;28;20516;-77
2022/05/26 02:40:11;;;;;;;3.28;2.65;;;10.80;99.90;;;;;;4973692;28;20061;-77
2022/05/26 02:42:47;;;;;;;5.75;2.92;;;10.70;99.90;;;;;;4973957;28;20030;-77
2022/05/26 02:45:14;;;;;;;2.88;2.30;;;10.70;99.90;;;;;;4973176;28;20552;-77
2022/05/26 02:48:17;;;;;;;3.97;2.92;;;10.70;99.90;;;;;;4973721;28;20030;-77
2022/05/26 02:51:14;;;;;;;6.00;2.53;;;10.70;99.90;;;;;;4973467;28;20042;-77
2022/05/26 02:53:52;;;;;;;5.45;2.70;;;10.70;99.90;;;;;;4975003;28;20034;-77
2022/05/26 02:56:34;;;;;;;5.55;2.83;;;10.70;99.90;;;;;;4982404;28;20023;-77
2022/05/26 02:59:33;;;;;;;5.88;2.90;;;10.70;99.90;;;;;;4973695;28;20836;-77
2022/05/26 03:02:14;;;;;;;4.43;2.53;;;10.60;99.90;;;;;;4973087;28;20019;-78
2022/05/26 03:04:46;;;;;;;4.47;2.80;;;10.60;99.90;;;;;;4973140;28;20026;-77
2022/05/26 03:07:18;;;;;;;3.95;2.70;;;10.60;99.90;;;;;;4972993;28;20023;-77
2022/05/26 03:09:45;;;;;;;5.05;2.95;;;10.60;99.90;;;;;;4973579;28;20038;-77
2022/05/26 03:12:28;;;;;;;3.25;2.40;;;10.50;99.90;;;;;;4972667;28;20377;-77
2022/05/26 03:14:54;;;;;;;5.05;2.60;;;10.50;99.90;;;;;;4973016;28;20034;-78
2022/05/26 03:17:21;;;;;;;4.10;2.90;;;10.50;99.90;;;;;;4973175;28;20027;-77
2022/05/26 03:19:46;;;;;;;4.53;2.88;;;10.50;99.90;;;;;;4973135;28;20031;-77
2022/05/26 03:22:12;;;;;;;4.97;2.83;;;10.50;99.90;;;;;;4973641;28;20480;-77
2022/05/26 03:24:38;;;;;;;4.35;2.70;;;10.40;99.90;;;;;;4972884;28;20029;-77
2022/05/26 03:27:04;;;;;;;6.00;3.38;;;10.40;99.90;;;;;;4955145;28;20050;-77
2022/05/26 03:29:30;;;;;;;6.38;2.70;;;10.40;99.90;;;;;;4972986;28;20023;-77
2022/05/26 03:31:55;;;;;;;4.90;2.80;;;10.50;99.90;;;;;;4972719;28;20026;-77
2022/05/26 03:42:34;;;;;;;4.82;2.78;;;10.50;99.90;;;;;;4972911;28;20037;-77
2022/05/26 03:45:02;;;;;;;6.90;3.03;;;10.50;99.90;;;;;;4972531;28;20027;-77
2022/05/26 03:47:28;;;;;;;3.60;2.65;;;10.50;99.90;;;;;;4972340;28;20031;-77
2022/05/26 03:49:53;;;;;;;4.35;2.80;;;10.50;99.90;;;;;;4972097;28;20457;-77
2022/05/26 03:52:19;;;;;;;4.10;2.85;;;10.50;99.90;;;;;;4972154;28;20027;-77
2022/05/26 03:54:44;;;;;;;4.00;3.17;;;10.50;99.90;;;;;;4977884;28;20515;-77
2022/05/26 03:57:10;;;;;;;6.38;2.88;;;10.60;99.90;;;;;;4977311;28;20026;-77
2022/05/26 03:59:40;;;;;;;3.90;2.58;;;10.60;99.90;;;;;;4972891;28;20031;-77
2022/05/26 04:02:06;;;;;;;4.50;2.85;;;10.70;99.90;;;;;;4972080;28;20504;-77
2022/05/26 04:04:32;;;;;;;6.47;2.60;;;10.70;99.90;;;;;;4972605;28;20033;-77
2022/05/26 04:06:57;;;;;;;6.03;2.70;;;10.70;99.90;;;;;;4972079;28;20114;-77
2022/05/26 04:09:23;;;;;;;4.82;2.78;;;10.80;99.90;;;;;;4972467;28;20134;-77
2022/05/26 04:11:48;;;;;;;4.45;2.65;;;10.80;99.90;;;;;;4972257;28;20054;-77
2022/05/26 04:14:14;;;;;;;6.60;2.90;;;10.80;99.90;;;;;;4972600;28;20073;-77
2022/05/26 04:16:39;;;;;;;5.95;2.75;;;10.90;99.90;;;;;;4972654;28;20027;-77
2022/05/26 04:19:05;;;;;;;5.75;3.15;;;10.90;99.90;;;;;;4972235;28;20030;-78
2022/05/26 04:21:31;;;;;;;6.68;2.65;;;10.90;99.90;;;;;;4954927;28;20027;-77
2022/05/26 04:23:57;;;;;;;5.65;2.97;;;11.00;99.90;;;;;;4972612;28;20062;-77
2022/05/26 04:26:23;;;;;;;4.72;2.80;;;11.10;99.90;;;;;;4972186;28;20093;-77
2022/05/26 04:28:48;;;;;;;3.70;2.30;;;11.20;99.90;;;;;;4971449;28;20428;-77
2022/05/26 04:31:14;;;;;;;5.13;2.58;;;11.30;99.90;;;;;;4971643;28;20046;-78
2022/05/26 04:33:39;;;;;;;3.75;2.20;;;11.40;99.90;;;;;;4971686;28;20073;-77
2022/05/26 04:36:06;;;;;;;4.43;2.42;;;11.40;99.90;;;;;;4971845;28;20069;-78
2022/05/26 04:38:31;;;;;;;4.28;2.42;;;11.50;99.90;;;;;;4972139;28;20033;-78
2022/05/26 04:41:03;;;;;;;3.67;2.50;;;11.60;99.90;;;;;;4971564;28;20035;-78
2022/05/26 04:43:30;;;;;;;5.05;2.30;;;11.60;99.90;;;;;;4972460;28;20042;-78
2022/05/26 04:45:57;;;;;;;3.88;2.58;;;11.70;99.90;;;;;;4972857;28;20022;-78
2022/05/26 04:48:22;;;;;;;5.10;2.45;;;11.70;99.90;;;;;;4972870;28;20037;-78
2022/05/26 04:50:52;;;;;;;4.35;2.20;;;11.80;99.90;;;;;;4972967;28;20389;-79
2022/05/26 04:53:18;;;;;;;3.55;2.10;;;11.80;99.90;;;;;;4972736;28;20026;-78
2022/05/26 04:55:45;;;;;;;2.95;2.08;;;11.90;99.90;;;;;;4981249;28;20022;-78
2022/05/26 04:58:11;;;;;;;4.22;2.25;;;11.90;99.90;;;;;;4992387;28;20149;-78
2022/05/26 05:00:38;;;;;;;4.28;2.20;;;11.90;99.90;;;;;;4991945;28;20109;-78
2022/05/26 05:03:03;;;;;;;4.90;2.33;;;12.00;99.90;;;;;;4991760;28;20031;-78
2022/05/26 05:05:29;;;;;;;4.07;2.50;;;12.00;99.90;;;;;;4991523;28;20160;-78
2022/05/26 05:07:55;;;;;;;2.90;2.03;;;12.20;99.90;;;;;;4991428;28;20030;-78
2022/05/26 05:10:20;;;;;;;5.88;2.38;;;12.20;99.90;;;;;;4991298;28;20030;-79
2022/05/26 05:12:49;;;;;;;6.28;2.10;;;12.20;99.90;;;;;;4990762;28;20026;-78
2022/05/26 05:15:26;;;;;;;6.68;2.17;;;12.30;99.90;;;;;;4989983;28;20483;-79
2022/05/26 05:17:51;;;;;;;4.57;2.20;;;12.40;99.90;;;;;;4990614;28;20129;-78
2022/05/26 05:20:17;;;;;;;4.70;2.05;;;12.50;99.90;;;;;;4990627;28;20158;-78
2022/05/26 05:22:53;;;;;;;3.70;2.25;;;12.60;99.90;;;;;;4990647;28;20023;-78
2022/05/26 05:25:20;;;;;;;6.40;2.10;;;12.70;99.90;;;;;;4990618;28;20034;-79
2022/05/26 05:27:56;;;;;;;2.70;1.70;;;12.80;99.90;;;;;;4989906;28;20041;-79
2022/05/26 05:30:29;;;;;;;2.95;1.88;;;12.90;99.90;;;;;;4990713;28;20026;-78
2022/05/26 05:33:01;;;;;;;4.20;1.95;;;13.00;99.90;;;;;;4973016;28;20022;-79
2022/05/26 05:35:33;;;;;;;4.80;1.88;;;13.00;99.90;;;;;;4972383;28;20046;-78
2022/05/26 05:38:01;;;;;;;2.65;1.77;;;13.10;99.90;;;;;;4989897;28;20157;-78
2022/05/26 05:40:27;;;;;;;3.90;1.90;;;13.30;99.90;;;;;;4972635;28;20049;-79
2022/05/26 05:42:53;;;;;;;3.90;2.00;;;13.40;99.90;;;;;;4990434;28;20065;-78
2022/05/26 05:45:18;;;;;;;3.00;1.92;;;13.50;99.90;;;;;;4989540;28;20065;-78
2022/05/26 05:47:44;;;;;;;3.25;2.08;;;13.60;99.90;;;;;;4972354;28;20376;-79
2022/05/26 05:50:10;;;;;;;3.22;2.05;;;13.70;99.90;;;;;;4989792;28;20030;-78
2022/05/26 05:52:36;;;;;;;2.40;1.75;;;13.90;99.90;;;;;;4971775;28;20030;-78
2022/05/26 05:55:04;;;;;;;6.68;1.92;;;14.10;99.90;;;;;;4983669;28;20037;-79
2022/05/26 05:57:30;;;;;;;2.60;1.98;;;14.20;99.90;;;;;;4972825;28;20381;-79
2022/05/26 05:59:55;;;;;;;3.20;1.83;;;14.20;99.90;;;;;;4970634;28;20027;-78
2022/05/26 06:02:21;;;;;;;3.90;1.80;;;14.40;99.90;;;;;;4970241;28;20114;-79
2022/05/26 06:04:47;;;;;;;14.98;2.47;;;14.50;99.90;;;;;;4969955;28;20125;-78
2022/05/26 06:07:21;;;;;;;5.50;1.90;;;14.60;99.90;;;;;;4970471;28;20080;-79
2022/05/26 06:09:47;;;;;;;4.18;2.17;;;14.70;99.90;;;;;;4969794;28;20054;-79
2022/05/26 06:12:13;;;;;;;3.78;2.00;;;14.80;99.90;;;;;;4970264;28;20149;-79
2022/05/26 06:14:42;;;;;;;2.85;1.85;;;14.90;99.90;;;;;;4974280;28;20487;-79
2022/05/26 06:17:09;;;;;;;2.92;1.85;;;14.90;99.90;;;;;;4976746;28;20038;-78
2022/05/26 06:19:36;;;;;;;6.18;1.88;;;14.90;99.90;;;;;;4976644;28;20034;-79
2022/05/26 06:22:17;;;;;;;4.22;1.80;;;14.90;99.90;;;;;;4976370;28;20434;-79
2022/05/26 06:24:43;;;;;;;2.78;1.85;;;15.00;99.90;;;;;;4976541;28;20084;-79
2022/05/26 06:29:56;;;;;;;6.78;2.22;;;15.00;99.90;;;;;;4976699;28;20464;-78
2022/05/26 06:37:54;;;;;;;3.08;1.65;;;15.00;99.90;;;;;;4976682;28;20109;-79
2022/05/26 06:40:20;;;;;;;2.50;1.77;;;15.20;99.90;;;;;;4976199;28;20039;-79
2022/05/26 06:42:47;;;;;;;4.45;2.10;;;15.30;99.90;;;;;;4976575;28;20085;-79
2022/05/26 06:45:15;;;;;;;5.53;1.70;;;15.50;99.90;;;;;;4975799;28;20037;-79
2022/05/26 06:47:41;;;;;;;4.40;2.22;;;15.70;99.90;;;;;;4959153;28;20038;-78
2022/05/26 06:50:10;;;;;;;3.95;1.52;;;15.70;99.90;;;;;;4975665;28;20027;-79
2022/05/26 06:52:37;;;;;;;4.95;1.65;;;15.70;99.90;;;;;;4976366;28;20077;-79
2022/05/26 06:55:07;;;;;;;4.60;1.60;;;15.80;99.90;;;;;;4984194;28;20080;-79
2022/05/26 06:57:33;;;;;;;6.03;2.08;;;15.90;99.90;;;;;;4977294;28;20089;-79
2022/05/26 07:00:00;;;;;;;2.97;1.50;;;16.00;99.90;;;;;;4976306;28;20431;-79
2022/05/26 07:02:26;;;;;;;4.35;1.60;;;16.10;99.90;;;;;;4975879;28;20139;-79
2022/05/26 07:04:53;;;;;;;3.47;1.30;;;16.20;99.90;;;;;;4976362;28;20050;-79
2022/05/26 07:07:18;;;;;;;4.63;1.70;;;16.30;99.90;;;;;;4974160;28;20561;-78
2022/05/26 07:09:44;;;;;;;3.85;1.40;;;16.30;99.90;;;;;;4976189;28;20086;-79
2022/05/26 07:12:11;;;;;;;8.05;1.50;;;16.40;99.90;;;;;;4975622;28;20030;-79
2022/05/26 07:14:37;;;;;;;5.88;1.60;;;16.30;99.90;;;;;;4975322;28;20037;-79
2022/05/26 07:17:02;;;;;;;5.25;1.38;;;16.20;99.90;;;;;;4975928;28;20031;-79
2022/05/26 07:19:33;;;;;;;2.53;1.40;;;16.20;99.90;;;;;;4975743;28;20457;-79
2022/05/26 07:21:59;;;;;;;4.45;1.40;;;16.30;99.90;;;;;;4975852;28;20034;-80
2022/05/26 07:24:24;;;;;;;2.17;1.20;;;16.50;99.90;;;;;;4974693;28;20034;-79
2022/05/26 07:26:50;;;;;;;4.93;1.00;;;16.70;99.90;;;;;;4971121;28;20031;-79
2022/05/26 07:29:17;;;;;;;3.58;1.10;;;16.80;99.90;;;;;;4972495;28;20038;-79
2022/05/26 07:31:43;;;;;;;1.73;0.90;;;16.80;99.90;;;;;;4972677;28;20030;-79
2022/05/26 07:34:09;;;;;;;4.72;1.08;;;16.90;99.90;;;;;;4972127;28;20050;-79
2022/05/26 07:42:07;;;;;;;2.58;0.95;;;17.30;99.90;;;;;;4972243;28;20090;-79
2022/05/26 07:44:36;;;;;;;2.70;1.00;;;17.40;99.90;;;;;;4972285;28;20022;-79
2022/05/26 07:47:07;;;;;;;2.92;1.20;;;17.50;99.90;;;;;;4971980;28;20049;-79
2022/05/26 07:49:34;;;;;;;1.98;1.10;;;17.60;99.90;;;;;;4972446;28;20049;-79
2022/05/26 07:52:01;;;;;;;2.53;1.30;;;17.70;99.90;;;;;;4972157;28;20050;-79
2022/05/26 07:54:28;;;;;;;5.78;1.20;;;17.90;99.90;;;;;;4958322;28;20042;-79
2022/05/26 07:56:55;;;;;;;4.45;1.20;;;17.90;99.90;;;;;;4979360;28;20114;-79
2022/05/26 07:59:21;;;;;;;2.13;1.35;;;18.00;99.90;;;;;;4971600;28;20564;-79
2022/05/26 08:01:48;;;;;;;6.15;1.10;;;18.00;99.90;;;;;;4972092;28;20050;-79
2022/05/26 08:04:16;;;;;;;4.07;1.38;;;18.20;99.90;;;;;;4971601;28;20022;-79
2022/05/26 08:06:46;;;;;;;2.67;1.13;;;18.20;99.90;;;;;;4972030;28;20126;-79
2022/05/26 08:09:13;;;;;;;2.97;1.23;;;18.20;99.90;;;;;;4971995;28;20027;-79
2022/05/26 08:11:39;;;;;;;5.45;1.27;;;18.20;99.90;;;;;;4971873;28;20029;-79
2022/05/26 08:14:04;;;;;;;3.05;1.10;;;18.20;99.90;;;;;;4971626;28;20030;-79
2022/05/26 08:16:31;;;;;;;3.28;1.20;;;18.20;99.90;;;;;;4971332;28;20408;-79
2022/05/26 08:18:57;;;;;;;3.13;0.90;;;18.20;99.90;;;;;;4971508;28;20042;-79
2022/05/26 08:21:23;;;;;;;3.90;1.23;;;18.20;99.90;;;;;;4971839;28;20031;-78
2022/05/26 08:23:49;;;;;;;3.53;1.00;;;18.40;99.90;;;;;;4971794;28;20549;-79
2022/05/26 08:26:14;;;;;;;2.40;1.10;;;18.40;99.90;;;;;;4972098;28;20474;-79
2022/05/26 08:28:42;;;;;;;1.77;1.10;;;18.40;99.90;;;;;;4971240;28;20044;-79
2022/05/26 08:31:09;;;;;;;3.70;1.00;;;18.40;99.90;;;;;;4971446;28;20443;-79
2022/05/26 08:33:37;;;;;;;1.88;1.20;;;18.40;99.90;;;;;;4971595;28;20030;-78
2022/05/26 08:36:05;;;;;;;2.00;0.80;;;18.40;99.90;;;;;;4970794;28;20039;-79
2022/05/26 08:38:31;;;;;;;2.63;0.90;;;18.40;99.90;;;;;;4970506;28;20038;-78
2022/05/26 08:40:57;;;;;;;5.57;1.38;;;18.40;99.90;;;;;;4954023;28;20030;-79
2022/05/26 08:43:34;;;;;;;5.88;1.00;;;18.40;99.90;;;;;;4971086;28;20484;-78
2022/05/26 08:46:03;;;;;;;4.25;1.00;;;18.50;99.90;;;;;;4971499;28;20031;-78
2022/05/26 08:48:49;;;;;;;3.22;1.33;;;18.40;99.90;;;;;;4971026;28;20027;-78
2022/05/26 08:51:33;;;;;;;3.55;0.90;;;18.60;99.90;;;;;;4969506;28;20037;-79
2022/05/26 08:53:59;;;;;;;5.43;1.27;;;18.70;99.90;;;;;;4973375;28;20086;-79
2022/05/26 08:56:27;;;;;;;3.17;0.90;;;18.80;99.90;;;;;;4981806;28;20089;-79
2022/05/26 08:59:00;;;;;;;2.58;0.95;;;18.90;99.90;;;;;;4990611;28;20105;-79
2022/05/26 09:01:31;;;;;;;2.40;0.90;;;19.00;99.90;;;;;;4990795;28;20108;-79
2022/05/26 09:03:57;;;;;;;1.58;1.00;;;19.10;99.90;;;;;;4990992;28;20140;-79
2022/05/26 09:06:23;;;;;;;2.35;1.00;;;19.20;99.90;;;;;;4990288;28;20109;-79
2022/05/26 09:14:28;;;;;;;4.15;1.10;;;19.60;99.90;;;;;;4990167;28;20431;-79
2022/05/26 09:17:02;;;;;;;3.42;1.10;;;19.70;99.90;;;;;;4972844;28;20474;-80
2022/05/26 09:19:43;;;;;;;1.67;1.00;;;19.80;99.90;;;;;;4973483;28;20395;-79
2022/05/26 09:22:31;;;;;;;2.90;0.95;;;19.80;99.90;;;;;;4973688;28;20030;-79
2022/05/26 09:24:58;;;;;;;2.53;0.95;;;19.70;99.90;;;;;;4990743;28;20097;-79
2022/05/26 09:27:31;;;;;;;5.43;1.10;;;19.70;99.90;;;;;;4990191;28;20071;-80
2022/05/26 09:30:24;;;;;;;3.42;1.13;;;19.60;99.90;;;;;;4990349;28;20479;-80
2022/05/26 09:32:51;;;;;;;1.33;0.80;;;19.60;99.90;;;;;;4987341;28;20340;-80
2022/05/26 09:35:19;;;;;;;4.05;1.00;;;19.80;99.90;;;;;;4989642;28;20133;-80
2022/05/26 09:37:53;;;;;;;1.13;0.80;;;20.20;99.90;;;;;;4989752;28;20564;-79
2022/05/26 09:40:26;;;;;;;2.83;1.00;;;20.70;99.90;;;;;;4989215;28;20081;-79
2022/05/26 09:43:06;;;;;;;2.17;0.90;;;20.90;99.90;;;;;;4989847;28;20463;-79
2022/05/26 09:45:46;;;;;;;4.15;1.10;;;21.10;99.90;;;;;;4988588;28;20030;-79
2022/05/26 09:48:36;;;;;;;2.95;0.73;;;21.30;99.90;;;;;;4987764;28;20034;-79
2022/05/26 09:51:22;;;;;;;1.85;1.00;;;21.30;99.90;;;;;;4988335;28;20022;-79
2022/05/26 09:53:51;;;;;;;4.32;0.93;;;21.10;99.90;;;;;;4969446;28;20124;-79
2022/05/26 09:56:37;;;;;;;2.35;0.80;;;20.70;99.90;;;;;;4978221;28;20592;-79
2022/05/26 09:59:23;;;;;;;1.75;0.80;;;20.30;99.90;;;;;;4969853;28;20055;-78
2022/05/26 10:01:53;;;;;;;3.95;0.90;;;20.40;99.90;;;;;;4956469;28;20133;-79
2022/05/26 10:04:24;;;;;;;2.78;1.00;;;20.50;99.90;;;;;;4969714;28;20045;-79
2022/05/26 10:06:58;;;;;;;5.47;1.15;;;20.60;99.90;;;;;;4969296;28;20073;-79
2022/05/26 10:09:48;;;;;;;1.48;0.80;;;20.60;99.90;;;;;;4970480;28;20033;-78
2022/05/26 10:12:45;;;;;;;9.65;0.90;;;20.60;99.90;;;;;;4969950;28;20497;-79
2022/05/26 10:15:27;;;;;;;2.88;0.85;;;20.40;99.90;;;;;;4935297;28;20041;-79
2022/05/26 10:18:14;;;;;;;1.30;0.68;;;20.50;99.90;;;;;;4969771;28;20038;-79
2022/05/26 10:20:51;;;;;;;3.47;1.05;;;20.50;99.90;;;;;;4968835;28;20027;-78
2022/05/26 10:23:41;;;;;;;1.75;0.90;;;20.50;99.90;;;;;;4969022;28;20373;-79
2022/05/26 10:26:23;;;;;;;3.03;0.93;;;20.70;99.90;;;;;;4969120;28;20023;-79
2022/05/26 10:29:00;;;;;;;2.33;0.90;;;20.90;99.90;;;;;;4968961;28;20027;-79
2022/05/26 10:31:51;;;;;;;2.25;0.80;;;21.10;99.90;;;;;;4969310;28;20472;-79
2022/05/26 10:34:45;;;;;;;1.67;0.80;;;21.20;99.90;;;;;;4969214;28;20037;-79
2022/05/26 10:37:40;;;;;;;2.53;1.00;;;21.30;99.90;;;;;;4950563;28;20154;-77
2022/05/26 10:40:22;;;;;;;3.50;0.93;;;21.60;99.90;;;;;;4952336;28;20088;-77
2022/05/26 10:43:03;;;;;;;4.78;0.90;;;21.90;99.90;;;;;;4969521;28;20038;-78
2022/05/26 10:45:45;;;;;;;4.97;1.00;;;22.10;99.90;;;;;;4967549;28;20383;-78
2022/05/26 10:48:29;;;;;;;3.10;0.90;;;22.20;99.90;;;;;;4968584;28;20169;-78
2022/05/26 10:51:05;;;;;;;4.28;0.90;;;22.50;99.90;;;;;;4951820;28;20054;-78
2022/05/26 10:53:34;;;;;;;2.47;0.85;;;22.90;99.90;;;;;;4969179;28;20050;-78
2022/05/26 10:56:29;;;;;;;2.67;0.90;;;23.30;99.90;;;;;;4979526;28;20041;-78
2022/05/26 10:59:01;;;;;;;3.83;0.88;;;23.60;99.90;;;;;;4952110;28;20054;-79
2022/05/26 11:01:42;;;;;;;4.10;0.80;;;23.70;99.90;;;;;;4972954;28;20034;-79
2022/05/26 11:04:43;;;;;;;1.08;0.70;;;23.90;99.90;;;;;;4972483;28;20034;-78
2022/05/26 11:07:17;;;;;;;3.53;0.80;;;23.80;99.90;;;;;;4967235;28;20559;-78
2022/05/26 11:09:52;;;;;;;2.45;0.77;;;23.70;99.90;;;;;;4972198;28;20039;-78
2022/05/26 11:12:33;;;;;;;4.07;0.85;;;23.40;99.90;;;;;;4972508;28;20034;-78
2022/05/26 11:17:58;;;;;;;2.90;1.23;;;22.70;99.90;;;;;;4972488;28;20039;-78
2022/05/26 11:20:36;;;;;;;3.05;0.80;;;22.60;99.90;;;;;;4971699;28;20041;-77
2022/05/26 11:23:03;;;;;;;3.03;1.10;;;22.70;99.90;;;;;;4971906;28;20432;-77
2022/05/26 11:25:38;;;;;;;2.13;0.85;;;23.10;99.90;;;;;;4971057;28;20093;-78
2022/05/26 11:28:39;;;;;;;1.65;0.73;;;23.30;99.90;;;;;;4971177;28;20030;-78
2022/05/26 11:36:47;;;;;;;2.10;0.65;;;23.50;99.90;;;;;;4971774;28;20119;-78
2022/05/26 11:39:24;;;;;;;2.13;0.60;;;23.50;99.90;;;;;;4972160;28;20023;-78
2022/05/26 11:42:00;;;;;;;2.13;0.85;;;23.50;99.90;;;;;;4972119;28;20062;-79
2022/05/26 11:44:44;;;;;;;2.42;0.90;;;23.80;99.90;;;;;;4969882;28;20388;-78
2022/05/26 11:47:16;;;;;;;1.77;0.80;;;24.30;99.90;;;;;;4971162;28;20038;-79
2022/05/26 11:49:44;;;;;;;2.40;0.80;;;24.60;99.90;;;;;;4971979;28;20026;-79
2022/05/26 11:52:22;;;;;;;2.92;0.73;;;25.00;99.50;;;;;;4971559;28;20019;-79
2022/05/26 11:54:59;;;;;;;2.53;0.75;;;25.30;98.50;;;;;;4978156;28;20104;-78
2022/05/26 11:57:41;;;;;;;2.75;1.00;;;25.30;97.10;;;;;;4991004;28;20023;-79
2022/05/26 12:00:18;;;;;;;3.10;1.17;;;25.40;98.00;;;;;;4990450;28;20018;-79
2022/05/26 12:02:50;;;;;;;2.25;0.77;;;25.00;96.30;;;;;;4990416;28;20022;-78
2022/05/26 12:05:28;;;;;;;3.22;0.93;;;24.60;95.40;;;;;;4990804;28;20472;-78
2022/05/26 12:07:59;;;;;;;2.88;0.90;;;24.10;96.30;;;;;;4990217;28;20113;-78
2022/05/26 12:10:27;;;;;;;5.35;1.48;;;23.80;98.80;;;;;;4989940;28;20033;-77
2022/05/26 12:13:25;;;;;;;1.55;0.88;;;23.90;98.70;;;;;;4989884;28;20022;-76
2022/05/26 12:16:08;;;;;;;3.75;0.80;;;24.40;97.30;;;;;;4990673;28;20045;-76
2022/05/26 12:18:38;;;;;;;3.80;0.93;;;24.50;97.60;;;;;;4990745;28;20494;-78
2022/05/26 12:21:34;;;;;;;3.40;0.68;;;24.60;96.20;;;;;;4990874;28;20467;-78
2022/05/26 12:24:31;;;;;;;1.70;0.90;;;24.70;96.50;;;;;;4991239;28;20034;-79
2022/05/26 12:26:56;;;;;;;4.40;0.90;;;25.00;96.80;;;;;;4972730;28;20069;-78
2022/05/26 12:29:41;;;;;;;2.17;1.10;;;25.50;95.60;;;;;;4989685;28;20031;-79
2022/05/26 12:32:10;;;;;;;2.88;1.15;;;25.90;94.80;;;;;;4990075;28;20383;-78
2022/05/26 12:34:51;;;;;;;0.95;0.70;;;26.00;93.40;;;;;;4989902;28;20344;-75
2022/05/26 12:37:47;;;;;;;2.17;0.98;;;25.90;91.40;;;;;;4989762;28;20432;-76
2022/05/26 12:40:41;;;;;;;2.38;0.82;;;26.20;93.30;;;;;;4988994;28;20038;-76
2022/05/26 12:43:43;;;;;;;4.75;0.90;;;26.30;91.90;;;;;;4971845;28;20391;-76
2022/05/26 12:46:37;;;;;;;4.55;0.75;;;26.10;92.70;;;;;;4989687;28;20019;-76
2022/05/26 12:49:15;;;;;;;4.03;1.00;;;25.70;92.70;;;;;;4989977;28;20035;-76
2022/05/26 12:51:40;;;;;;;4.47;0.88;;;25.40;93.30;;;;;;4989314;28;20058;-77
2022/05/26 12:54:10;;;;;;;2.55;0.80;;;25.20;92.00;;;;;;4985493;28;20023;-77
2022/05/26 12:56:51;;;;;;;3.33;0.98;;;25.20;94.30;;;;;;4978342;28;20031;-77
2022/05/26 12:59:22;;;;;;;3.00;1.05;;;25.10;94.40;;;;;;4952521;28;20377;-77
2022/05/26 13:01:49;;;;;;;1.50;0.75;;;25.00;94.30;;;;;;4970163;28;20039;-77
2022/05/26 13:04:21;;;;;;;2.45;0.70;;;24.90;94.60;;;;;;4968327;28;20030;-76
2022/05/26 13:06:51;;;;;;;2.97;0.80;;;25.20;94.20;;;;;;4969651;28;20094;-77
2022/05/26 13:09:25;;;;;;;1.52;0.70;;;25.30;94.10;;;;;;4970001;28;20030;-76
2022/05/26 13:11:57;;;;;;;2.33;0.90;;;25.10;92.70;;;;;;4969418;28;20093;-78
2022/05/26 13:14:45;;;;;;;3.03;0.90;;;24.90;92.40;;;;;;4970202;28;20433;-78
2022/05/26 13:17:13;;;;;;;3.20;1.13;;;24.70;93.40;;;;;;4970361;28;20126;-78
2022/05/26 13:19:47;;;;;;;4.22;0.90;;;24.70;93.90;;;;;;4969751;28;20030;-77
2022/05/26 13:22:18;;;;;;;1.95;0.82;;;24.70;93.70;;;;;;4968814;28;20030;-76
2022/05/26 13:24:53;;;;;;;2.05;0.80;;;25.00;94.50;;;;;;4969697;28;20531;-76
2022/05/26 13:27:19;;;;;;;3.97;0.93;;;25.30;93.90;;;;;;4969100;28;20023;-76
2022/05/26 13:29:47;;;;;;;3.08;0.80;;;25.40;94.40;;;;;;4969331;28;20497;-77
2022/05/26 13:35:19;;;;;;;2.42;0.88;;;25.70;94.00;;;;;;4969248;28;20113;-77
2022/05/26 13:37:46;;;;;;;2.15;0.77;;;25.40;93.50;;;;;;4969031;28;20403;-76
2022/05/26 13:40:16;;;;;;;1.95;0.93;;;25.30;94.50;;;;;;4969633;28;20069;-77
2022/05/26 13:42:45;;;;;;;3.53;1.10;;;25.10;92.80;;;;;;4969241;28;20488;-77
2022/05/26 13:45:22;;;;;;;2.13;0.80;;;24.70;94.30;;;;;;4968805;28;20439;-77
2022/05/26 13:47:48;;;;;;;4.03;1.00;;;24.50;94.60;;;;;;4969037;28;20618;-76
2022/05/26 13:50:14;;;;;;;3.10;0.90;;;24.20;95.60;;;;;;4969404;28;20110;-76
2022/05/26 13:52:41;;;;;;;4.03;1.00;;;24.00;94.20;;;;;;4969820;28;20540;-76
2022/05/26 13:55:25;;;;;;;3.95;1.00;;;23.80;94.80;;;;;;4980390;28;20030;-76